Time;durP1;ratioP1;P1;durP2;ratioP2;P2;SDS_P1;SDS_P2;PMS_P1;PMS_P2;Temp;Humidity;BMP_temperature;BMP_pressure;BME280_temperature;BME280_humidity;BME280_pressure;Samples;Min_cycle;Max_cycle;Signal;HPM_P1;HPM_P2
2021/06/20 00:00:36;;;;;;;10.23;6.85;;;;;;;22.36;100.00;95317.53;1034434;28;20045;-72
2021/06/20 00:01:06;;;;;;;8.05;6.28;;;;;;;22.36;100.00;95318.31;1028382;28;20090;-72
2021/06/20 00:01:37;;;;;;;7.40;6.63;;;;;;;22.36;100.00;95322.88;1024588;28;20093;-72
2021/06/20 00:02:08;;;;;;;11.77;6.75;;;;;;;22.33;100.00;95318.25;1025655;28;20057;-71
2021/06/20 00:02:38;;;;;;;17.95;7.45;;;;;;;22.31;100.00;95317.81;1027035;28;20027;-71
2021/06/20 00:03:11;;;;;;;6.93;6.20;;;;;;;22.28;100.00;95308.59;1029942;28;20082;-70
2021/06/20 00:03:42;;;;;;;8.25;6.07;;;;;;;22.31;100.00;95310.56;1032048;28;20477;-71
2021/06/20 00:04:13;;;;;;;6.80;6.10;;;;;;;22.32;100.00;95312.13;1034273;28;20048;-71
2021/06/20 00:04:43;;;;;;;19.15;7.05;;;;;;;22.29;100.00;95307.47;1027386;28;20050;-72
2021/06/20 00:05:15;;;;;;;9.35;6.78;;;;;;;22.33;100.00;95308.34;1026660;28;20551;-72
2021/06/20 00:05:51;;;;;;;7.10;5.88;;;;;;;22.43;100.00;95306.22;1024116;28;20587;-71
2021/06/20 00:06:39;;;;;;;7.07;6.38;;;;;;;22.36;100.00;95307.63;1019660;28;20057;-70
2021/06/20 00:07:09;;;;;;;8.73;6.57;;;;;;;22.26;100.00;95297.47;1026716;28;20022;-72
2021/06/20 00:07:43;;;;;;;16.88;7.00;;;;;;;22.25;100.00;95311.97;1022687;29;20425;-72
2021/06/20 00:08:14;;;;;;;9.38;6.65;;;;;;;22.22;100.00;95307.31;1031880;28;20041;-72
2021/06/20 00:08:44;;;;;;;7.05;6.35;;;;;;;22.24;100.00;95315.78;1034663;28;20434;-72
2021/06/20 00:09:14;;;;;;;8.52;6.38;;;;;;;22.21;100.00;95311.13;1035389;28;20030;-71
2021/06/20 00:09:45;;;;;;;7.25;6.50;;;;;;;22.20;100.00;95319.47;1034526;28;20097;-72
2021/06/20 00:10:22;;;;;;;13.15;6.75;;;;;;;22.11;100.00;95311.63;1034856;28;20029;-72
2021/06/20 00:10:53;;;;;;;7.03;6.30;;;;;;;22.12;100.00;95315.84;1023176;28;20020;-71
2021/06/20 00:11:23;;;;;;;8.65;6.97;;;;;;;22.12;100.00;95321.19;1024016;28;20065;-72
2021/06/20 00:11:53;;;;;;;6.93;6.18;;;;;;;22.07;100.00;95324.91;1030640;28;20575;-72
2021/06/20 00:12:27;;;;;;;8.32;6.47;;;;;;;22.06;100.00;95325.22;1030577;28;20049;-72
2021/06/20 00:12:58;;;;;;;9.13;6.82;;;;;;;22.02;100.00;95324.38;1030847;28;20026;-71
2021/06/20 00:13:28;;;;;;;9.80;6.82;;;;;;;21.99;100.00;95320.50;1035078;28;20535;-71
2021/06/20 00:14:02;;;;;;;7.60;6.68;;;;;;;21.98;100.00;95313.59;1038879;28;20565;-72
2021/06/20 00:14:32;;;;;;;8.98;7.68;;;;;;;21.95;100.00;95303.59;1035148;28;20088;-72
2021/06/20 00:15:04;;;;;;;8.25;7.28;;;;;;;21.94;100.00;95301.28;1039238;28;20041;-72
2021/06/20 00:15:36;;;;;;;8.90;7.03;;;;;;;21.89;100.00;95297.75;1034703;28;20071;-72
2021/06/20 00:16:07;;;;;;;10.07;6.95;;;;;;;21.88;100.00;95296.19;1027072;28;20114;-72
2021/06/20 00:16:38;;;;;;;11.82;7.00;;;;;;;21.87;100.00;95291.97;1026285;28;20629;-72
2021/06/20 00:17:08;;;;;;;9.15;7.15;;;;;;;21.84;100.00;95290.00;1026625;28;20393;-72
2021/06/20 00:17:39;;;;;;;8.95;7.03;;;;;;;21.77;100.00;95281.81;1029024;28;20385;-72
2021/06/20 00:18:09;;;;;;;10.32;7.50;;;;;;;21.83;100.00;95291.13;1026518;28;20411;-72
2021/06/20 00:18:40;;;;;;;11.57;7.68;;;;;;;21.82;100.00;95288.78;1026449;28;20026;-72
2021/06/20 00:19:10;;;;;;;9.95;7.47;;;;;;;21.81;100.00;95285.34;1030339;28;20049;-72
2021/06/20 00:19:41;;;;;;;8.55;7.30;;;;;;;21.75;100.00;95275.28;1030733;28;20070;-72
2021/06/20 00:20:12;;;;;;;8.10;7.30;;;;;;;21.77;100.00;95283.72;1030756;28;20038;-72
2021/06/20 00:20:45;;;;;;;9.45;7.63;;;;;;;21.72;100.00;95273.28;1035090;28;20549;-72
2021/06/20 00:21:16;;;;;;;12.13;7.22;;;;;;;21.83;100.00;95288.47;1033824;28;20033;-72
2021/06/20 00:21:46;;;;;;;9.30;6.80;;;;;;;21.83;100.00;95291.13;1030519;28;20711;-71
2021/06/20 00:22:17;;;;;;;9.13;7.68;;;;;;;21.83;100.00;95291.13;1027345;28;20563;-72
2021/06/20 00:22:47;;;;;;;8.38;7.30;;;;;;;21.78;100.00;95274.59;1030704;28;20491;-72
2021/06/20 00:23:18;;;;;;;22.77;8.43;;;;;;;21.82;100.00;95292.22;1034164;28;20617;-72
2021/06/20 00:23:48;;;;;;;10.40;7.18;;;;;;;21.80;100.00;95291.81;1026422;28;20474;-72
2021/06/20 00:24:21;;;;;;;13.38;7.35;;;;;;;21.78;100.00;95288.72;1027348;28;20046;-72
2021/06/20 00:24:52;;;;;;;13.60;7.57;;;;;;;21.77;100.00;95284.50;1030935;28;20173;-71
2021/06/20 00:25:31;;;;;;;14.00;7.47;;;;;;;21.76;100.00;95290.94;1032425;28;20405;-72
2021/06/20 00:26:02;;;;;;;12.38;7.50;;;;;;;21.74;100.00;95289.75;1030986;28;20038;-72
2021/06/20 00:26:33;;;;;;;14.15;7.00;;;;;;;21.77;100.00;95297.06;1031856;28;20046;-72
2021/06/20 00:27:03;;;;;;;9.75;7.05;;;;;;;21.63;100.00;95268.13;1035898;28;20032;-73
2021/06/20 00:27:33;;;;;;;11.77;7.15;;;;;;;21.76;100.00;95295.50;1030886;28;20030;-71
2021/06/20 00:28:07;;;;;;;9.07;7.00;;;;;;;21.75;100.00;95300.06;1026292;28;20846;-72
2021/06/20 00:28:37;;;;;;;10.93;7.30;;;;;;;21.74;100.00;95292.44;1027013;28;20058;-71
2021/06/20 00:29:08;;;;;;;10.00;7.82;;;;;;;21.73;100.00;95297.00;1027658;28;20033;-72
2021/06/20 00:29:41;;;;;;;9.20;6.90;;;;;;;21.72;100.00;95300.00;1031721;28;20026;-71
2021/06/20 00:30:14;;;;;;;8.18;7.40;;;;;;;21.68;100.00;95293.78;1039502;28;20033;-72
2021/06/20 00:30:50;;;;;;;7.88;7.07;;;;;;;21.60;100.00;95287.50;1038908;28;20033;-73
2021/06/20 00:31:20;;;;;;;10.80;7.35;;;;;;;21.62;100.00;95298.59;1034417;28;20034;-72
2021/06/20 00:31:50;;;;;;;11.40;7.30;;;;;;;21.60;100.00;95287.50;1027660;28;20031;-72
2021/06/20 00:32:21;;;;;;;8.70;7.13;;;;;;;21.60;100.00;95287.50;1032443;28;20463;-73
2021/06/20 00:32:51;;;;;;;10.57;7.38;;;;;;;21.57;100.00;95283.63;1035124;28;20034;-72
2021/06/20 00:33:22;;;;;;;12.82;7.10;;;;;;;21.51;100.00;95276.22;1026010;28;20039;-72
2021/06/20 00:33:52;;;;;;;8.07;7.32;;;;;;;21.55;100.00;95280.50;1026673;28;20496;-72
2021/06/20 00:34:28;;;;;;;9.80;7.38;;;;;;;21.51;100.00;95284.22;1022763;28;20027;-72
2021/06/20 00:34:59;;;;;;;10.15;7.32;;;;;;;21.51;100.00;95285.00;1025159;28;20796;-72
2021/06/20 00:35:29;;;;;;;10.10;6.93;;;;;;;21.48;100.00;95279.56;1031358;28;20042;-72
2021/06/20 00:36:00;;;;;;;9.15;6.72;;;;;;;21.48;100.00;95280.34;1035746;28;20388;-71
2021/06/20 00:36:30;;;;;;;13.63;7.30;;;;;;;21.45;100.00;95280.25;1034033;28;20123;-72
2021/06/20 00:37:01;;;;;;;8.20;7.32;;;;;;;21.45;100.00;95286.38;1031665;28;20400;-73
2021/06/20 00:37:31;;;;;;;9.52;7.47;;;;;;;21.44;100.00;95284.06;1035339;28;20594;-72
2021/06/20 00:38:01;;;;;;;12.60;8.32;;;;;;;21.45;100.00;95285.59;1031420;28;20022;-72
2021/06/20 00:38:32;;;;;;;12.15;7.03;;;;;;;21.38;100.00;95284.28;1035557;28;20107;-72
2021/06/20 00:39:02;;;;;;;16.90;8.25;;;;;;;21.41;100.00;95285.50;1035727;28;20037;-72
2021/06/20 00:39:33;;;;;;;14.80;7.78;;;;;;;21.44;100.00;95286.72;1027202;28;20034;-72
2021/06/20 00:40:05;;;;;;;12.10;7.45;;;;;;;21.34;100.00;95275.41;1027092;28;20031;-72
2021/06/20 00:40:35;;;;;;;12.75;8.13;;;;;;;21.37;100.00;95287.31;1019454;29;20545;-72
2021/06/20 00:41:05;;;;;;;22.90;9.65;;;;;;;21.32;100.00;95282.94;1023072;28;20038;-72
2021/06/20 00:41:38;;;;;;;27.40;9.20;;;;;;;21.31;100.00;95285.97;1027659;28;20046;-71
2021/06/20 00:42:12;;;;;;;11.40;7.72;;;;;;;21.29;100.00;95288.97;1028202;28;20073;-71
2021/06/20 00:42:45;;;;;;;12.55;7.97;;;;;;;21.24;100.00;95285.81;1031489;28;20030;-73
2021/06/20 00:43:15;;;;;;;17.88;7.70;;;;;;;21.18;100.00;95282.59;1031585;28;20034;-72
2021/06/20 00:43:46;;;;;;;14.52;8.45;;;;;;;21.24;100.00;95286.56;1034712;28;20030;-71
2021/06/20 00:44:16;;;;;;;13.20;7.47;;;;;;;21.07;100.00;95263.63;1035512;28;20110;-72
2021/06/20 00:44:48;;;;;;;17.80;7.57;;;;;;;21.22;100.00;95280.78;1032559;28;20038;-72
2021/06/20 00:45:19;;;;;;;25.42;8.60;;;;;;;21.16;100.00;95279.50;1027659;28;20527;-72
2021/06/20 00:45:50;;;;;;;16.65;9.00;;;;;;;21.22;100.00;95288.78;1031044;28;20033;-72
2021/06/20 00:46:20;;;;;;;18.95;7.97;;;;;;;21.20;100.00;95280.38;1028566;28;20395;-72
2021/06/20 00:46:51;;;;;;;24.40;8.68;;;;;;;21.19;100.00;95284.13;1025895;28;20031;-72
2021/06/20 00:47:21;;;;;;;23.10;7.68;;;;;;;21.18;100.00;95280.69;1029731;28;20101;-72
2021/06/20 00:47:53;;;;;;;14.25;8.10;;;;;;;21.09;100.00;95271.28;1035190;28;20036;-72
2021/06/20 00:48:27;;;;;;;19.63;8.10;;;;;;;21.12;100.00;95275.94;1030986;28;20836;-72
2021/06/20 00:48:57;;;;;;;12.18;8.18;;;;;;;21.11;100.00;95283.19;1026456;28;20034;-72
2021/06/20 00:49:27;;;;;;;18.52;7.68;;;;;;;21.11;100.00;95282.41;1027404;28;20046;-72
2021/06/20 00:49:58;;;;;;;19.52;8.55;;;;;;;21.09;100.00;95279.28;1023408;28;20555;-72
2021/06/20 00:50:28;;;;;;;16.23;8.50;;;;;;;21.07;100.00;95287.66;1027251;28;20061;-72
2021/06/20 00:50:59;;;;;;;20.35;8.60;;;;;;;21.05;100.00;95278.44;1031346;28;20096;-72
2021/06/20 00:51:29;;;;;;;18.70;7.82;;;;;;;21.07;100.00;95278.88;1031682;28;20034;-71
2021/06/20 00:52:00;;;;;;;12.93;8.00;;;;;;;21.04;100.00;95276.88;1031014;28;20026;-72
2021/06/20 00:52:30;;;;;;;17.40;8.23;;;;;;;21.02;100.00;95276.44;1031311;28;20031;-72
2021/06/20 00:53:01;;;;;;;16.10;8.50;;;;;;;20.98;100.00;95273.69;1030993;28;20030;-72
2021/06/20 00:53:32;;;;;;;9.85;7.95;;;;;;;20.97;100.00;95272.13;1027700;28;20373;-72
2021/06/20 00:54:03;;;;;;;13.85;7.50;;;;;;;21.00;100.00;95268.78;1034556;28;20033;-72
2021/06/20 00:54:33;;;;;;;8.65;7.43;;;;;;;21.01;100.00;95272.22;1027146;28;20023;-72
2021/06/20 00:55:05;;;;;;;10.77;8.05;;;;;;;21.01;100.00;95277.56;1027335;28;20023;-72
2021/06/20 00:55:38;;;;;;;12.60;7.72;;;;;;;20.98;100.00;95264.91;1027841;28;20118;-72
2021/06/20 00:56:09;;;;;;;16.55;8.20;;;;;;;20.89;100.00;95249.84;1027748;28;20038;-72
2021/06/20 00:56:39;;;;;;;7.80;7.10;;;;;;;20.98;100.00;95262.25;1027724;28;20030;-71
2021/06/20 00:57:09;;;;;;;8.20;7.25;;;;;;;20.98;100.00;95263.00;1027829;28;20061;-72
2021/06/20 00:57:40;;;;;;;12.95;8.45;;;;;;;20.92;100.00;95246.50;1035303;28;20026;-72
2021/06/20 00:58:10;;;;;;;8.18;6.82;;;;;;;20.96;100.00;95254.59;1030236;28;20033;-72
2021/06/20 00:58:44;;;;;;;10.23;7.95;;;;;;;20.99;100.00;95251.22;1031850;28;20034;-72
2021/06/20 00:59:14;;;;;;;8.10;7.30;;;;;;;21.03;100.00;95254.00;1035222;28;20035;-72
2021/06/20 00:59:47;;;;;;;11.18;8.38;;;;;;;21.02;100.00;95247.88;1031978;28;20078;-71
2021/06/20 01:00:21;;;;;;;8.65;7.75;;;;;;;21.05;100.00;95244.53;1024106;28;20042;-72
2021/06/20 01:00:51;;;;;;;9.60;7.68;;;;;;;21.10;100.00;95248.84;1031240;28;20022;-72
2021/06/20 01:01:22;;;;;;;9.63;8.18;;;;;;;21.11;100.00;95247.72;1028695;28;20019;-72
2021/06/20 01:01:52;;;;;;;8.82;8.02;;;;;;;21.11;100.00;95251.16;1031817;28;20038;-72
2021/06/20 01:02:23;;;;;;;9.90;7.45;;;;;;;21.07;100.00;95244.19;1031240;28;20030;-72
2021/06/20 01:02:53;;;;;;;10.43;8.25;;;;;;;21.09;100.00;95248.06;1026780;28;20030;-70
2021/06/20 01:03:26;;;;;;;9.02;7.43;;;;;;;21.09;100.00;95247.28;1021841;28;20066;-72
2021/06/20 01:03:57;;;;;;;8.23;7.40;;;;;;;21.09;100.00;95245.41;1027767;28;20038;-72
2021/06/20 01:04:27;;;;;;;12.52;8.35;;;;;;;21.07;100.00;95244.19;1027119;28;20022;-71
2021/06/20 01:04:58;;;;;;;7.75;7.03;;;;;;;21.05;100.00;95238.41;1027404;28;20033;-72
2021/06/20 01:05:28;;;;;;;8.07;7.38;;;;;;;21.03;100.00;95243.34;1031434;28;20419;-71
2021/06/20 01:06:01;;;;;;;10.73;8.13;;;;;;;21.03;100.00;95244.09;1027315;28;20113;-72
2021/06/20 01:06:35;;;;;;;11.27;7.68;;;;;;;20.94;100.00;95236.25;1031203;28;20023;-72
2021/06/20 01:07:05;;;;;;;10.98;7.65;;;;;;;20.95;100.00;95237.00;1027242;28;20376;-71
2021/06/20 01:07:36;;;;;;;10.02;8.75;;;;;;;20.99;100.00;95242.44;1019851;29;20035;-72
2021/06/20 01:08:06;;;;;;;8.20;7.38;;;;;;;20.99;100.00;95242.44;1027243;28;20066;-72
2021/06/20 01:08:37;;;;;;;11.73;8.25;;;;;;;20.93;100.00;95240.03;1030498;28;20113;-72
2021/06/20 01:09:07;;;;;;;40.47;10.15;;;;;;;20.97;100.00;95244.69;1027207;28;20135;-72
2021/06/20 01:09:37;;;;;;;13.00;7.78;;;;;;;20.95;100.00;95250.34;1019597;29;20063;-72
2021/06/20 01:10:09;;;;;;;10.07;8.15;;;;;;;20.91;100.00;95252.94;1021188;28;20024;-72
2021/06/20 01:10:39;;;;;;;10.82;7.50;;;;;;;20.91;100.00;95244.91;1023467;28;20015;-73
2021/06/20 01:11:10;;;;;;;9.98;8.10;;;;;;;20.89;100.00;95249.84;1023547;28;20493;-72
2021/06/20 01:11:40;;;;;;;9.50;7.53;;;;;;;20.88;100.00;95248.28;1027348;28;20115;-72
2021/06/20 01:12:11;;;;;;;11.57;8.15;;;;;;;20.89;100.00;95254.38;1023399;28;20023;-72
2021/06/20 01:12:42;;;;;;;8.85;8.02;;;;;;;20.86;100.00;95255.84;1023317;28;20022;-71
2021/06/20 01:13:14;;;;;;;9.68;8.32;;;;;;;20.78;100.00;95235.44;1021929;29;20039;-72
2021/06/20 01:13:45;;;;;;;17.75;8.85;;;;;;;20.83;100.00;95248.53;1027478;28;20526;-72
2021/06/20 01:14:15;;;;;;;12.43;8.13;;;;;;;20.82;100.00;95243.53;1027851;28;20109;-72
2021/06/20 01:14:47;;;;;;;11.57;8.05;;;;;;;20.79;100.00;95238.88;1030132;28;20057;-72
2021/06/20 01:15:17;;;;;;;11.27;8.05;;;;;;;20.80;100.00;95249.19;1033853;28;20063;-72
2021/06/20 01:15:50;;;;;;;14.63;8.80;;;;;;;20.80;100.00;95245.75;1031395;28;20032;-72
2021/06/20 01:16:20;;;;;;;10.98;7.90;;;;;;;20.74;100.00;95237.22;1032125;28;20033;-71
2021/06/20 01:16:52;;;;;;;8.85;7.95;;;;;;;20.76;100.00;95245.66;1024746;28;20365;-72
2021/06/20 01:17:25;;;;;;;13.25;8.25;;;;;;;20.76;100.00;95245.66;1027194;28;20015;-72
2021/06/20 01:17:56;;;;;;;15.73;8.93;;;;;;;20.75;100.00;95248.66;1027412;28;20035;-72
2021/06/20 01:18:26;;;;;;;13.57;8.15;;;;;;;20.70;100.00;95247.03;1030770;28;20432;-72
2021/06/20 01:18:57;;;;;;;17.88;8.88;;;;;;;20.68;100.00;95239.34;1032483;28;20065;-72
2021/06/20 01:19:27;;;;;;;22.33;10.07;;;;;;;20.69;100.00;95245.44;1029082;28;20480;-71
2021/06/20 01:19:58;;;;;;;17.67;8.70;;;;;;;20.65;100.00;95245.34;1026627;28;20030;-72
2021/06/20 01:20:29;;;;;;;19.77;8.40;;;;;;;20.61;100.00;95243.72;1024917;28;20774;-71
2021/06/20 01:20:59;;;;;;;16.20;8.95;;;;;;;20.60;100.00;95253.59;1027711;28;20165;-72
2021/06/20 01:21:29;;;;;;;13.15;8.20;;;;;;;20.58;100.00;95245.16;1034969;28;20026;-72
2021/06/20 01:22:22;;;;;;;11.13;8.32;;;;;;;20.57;100.00;95240.94;1026778;28;20015;-72
2021/06/20 01:22:55;;;;;;;17.45;9.13;;;;;;;20.57;100.00;95248.19;1030164;28;20089;-72
2021/06/20 01:23:26;;;;;;;12.95;8.38;;;;;;;20.58;100.00;95245.16;1023005;29;20031;-72
2021/06/20 01:23:56;;;;;;;10.43;8.68;;;;;;;20.54;100.00;95241.63;1026950;28;20561;-72
2021/06/20 01:24:27;;;;;;;9.60;8.60;;;;;;;20.60;100.00;95250.94;1024893;28;20469;-72
2021/06/20 01:25:02;;;;;;;13.68;8.63;;;;;;;20.59;100.00;95249.41;1023514;28;20090;-72
2021/06/20 01:25:33;;;;;;;19.88;9.43;;;;;;;20.57;100.00;95248.19;1029419;28;20026;-73
2021/06/20 01:26:03;;;;;;;34.05;10.60;;;;;;;20.47;100.00;95239.50;1032911;28;20029;-72
2021/06/20 01:26:34;;;;;;;18.10;9.15;;;;;;;20.54;100.00;95246.19;1042638;28;20025;-72
2021/06/20 01:27:04;;;;;;;10.90;8.93;;;;;;;20.52;100.00;95249.16;1035972;28;20391;-71
2021/06/20 01:27:50;;;;;;;14.23;8.85;;;;;;;20.47;100.00;95242.16;1039348;28;20467;-71
2021/06/20 01:28:26;;;;;;;9.68;8.52;;;;;;;20.49;100.00;95250.63;1037582;28;20026;-72
2021/06/20 01:29:04;;;;;;;9.30;8.35;;;;;;;20.44;100.00;95239.41;1042163;28;20474;-72
2021/06/20 01:29:44;;;;;;;13.55;8.38;;;;;;;20.47;100.00;95244.84;1036552;28;20613;-72
2021/06/20 01:30:25;;;;;;;12.45;8.70;;;;;;;20.48;100.00;95248.28;1039568;28;20037;-72
2021/06/20 01:30:59;;;;;;;15.57;8.95;;;;;;;20.46;100.00;95248.63;1035503;28;20133;-71
2021/06/20 01:31:32;;;;;;;10.23;8.23;;;;;;;20.46;100.00;95250.53;1035290;28;20026;-72
2021/06/20 01:32:05;;;;;;;11.82;8.80;;;;;;;20.39;100.00;95237.75;1031231;28;20022;-73
2021/06/20 01:32:36;;;;;;;8.70;7.80;;;;;;;20.46;100.00;95247.84;1032649;28;20014;-72
2021/06/20 01:33:08;;;;;;;10.50;9.13;;;;;;;20.46;100.00;95239.84;1027728;28;20026;-72
2021/06/20 01:33:38;;;;;;;12.23;8.77;;;;;;;20.47;100.00;95250.16;1032111;28;20110;-72
2021/06/20 01:34:09;;;;;;;13.82;9.32;;;;;;;20.47;100.00;95249.41;1035058;28;20021;-72
2021/06/20 01:34:39;;;;;;;11.25;8.90;;;;;;;20.46;100.00;95253.19;1039760;28;20013;-72
2021/06/20 01:35:11;;;;;;;16.27;9.40;;;;;;;20.45;100.00;95256.94;1043807;28;20017;-72
2021/06/20 01:35:41;;;;;;;12.32;9.23;;;;;;;20.44;100.00;95250.06;1038974;28;20017;-72
2021/06/20 01:36:12;;;;;;;14.65;9.98;;;;;;;20.40;100.00;95259.84;1031112;28;20026;-72
2021/06/20 01:36:44;;;;;;;17.42;9.73;;;;;;;20.37;100.00;95261.31;1027235;28;20027;-72
2021/06/20 01:37:14;;;;;;;10.70;8.25;;;;;;;20.35;100.00;95255.53;1027518;28;20408;-72
2021/06/20 01:37:45;;;;;;;10.15;9.15;;;;;;;20.38;100.00;95262.06;1023535;28;20110;-72
2021/06/20 01:38:16;;;;;;;11.70;9.15;;;;;;;20.40;100.00;95257.97;1027534;28;20151;-72
2021/06/20 01:38:49;;;;;;;12.10;9.10;;;;;;;20.37;100.00;95253.31;1027220;28;20026;-72
2021/06/20 01:39:19;;;;;;;10.55;9.55;;;;;;;20.49;100.00;95261.28;1035115;28;20024;-71
2021/06/20 01:39:50;;;;;;;10.77;9.68;;;;;;;20.55;100.00;95255.72;1039373;28;20025;-71
2021/06/20 01:40:21;;;;;;;10.70;9.68;;;;;;;20.59;100.00;95257.41;1035260;28;20026;-72
2021/06/20 01:40:51;;;;;;;10.82;9.65;;;;;;;20.60;100.00;95258.16;1029179;28;20039;-71
2021/06/20 01:41:22;;;;;;;18.35;9.38;;;;;;;20.62;100.00;95263.91;1023274;29;20065;-72
2021/06/20 01:41:52;;;;;;;22.15;9.90;;;;;;;20.56;100.00;95246.63;1030460;28;20040;-72
2021/06/20 01:42:23;;;;;;;15.18;10.07;;;;;;;20.61;100.00;95255.16;1030336;28;20038;-72
2021/06/20 01:42:53;;;;;;;13.25;9.10;;;;;;;20.59;100.00;95248.59;1018534;29;20035;-71
2021/06/20 01:43:24;;;;;;;9.82;8.90;;;;;;;20.61;100.00;95255.16;1023070;29;20042;-72
2021/06/20 01:43:54;;;;;;;10.93;9.10;;;;;;;20.63;100.00;95257.50;1027173;28;20057;-71
2021/06/20 01:44:25;;;;;;;12.05;9.60;;;;;;;20.62;100.00;95256.72;1026670;28;20015;-71
2021/06/20 01:44:59;;;;;;;10.40;8.95;;;;;;;20.63;100.00;95252.16;1031194;28;20491;-71
2021/06/20 01:45:30;;;;;;;9.95;9.02;;;;;;;20.56;100.00;95243.97;1025128;28;20077;-72
2021/06/20 01:46:01;;;;;;;16.15;9.30;;;;;;;20.61;100.00;95249.81;1023313;28;20583;-72
2021/06/20 01:46:31;;;;;;;10.75;9.75;;;;;;;20.61;100.00;95251.72;1026769;28;20587;-72
2021/06/20 01:47:02;;;;;;;12.27;9.85;;;;;;;20.61;100.00;95257.03;1027661;28;20030;-72
2021/06/20 01:47:33;;;;;;;10.75;9.65;;;;;;;20.63;100.00;95252.94;1026438;28;20027;-72
2021/06/20 01:48:03;;;;;;;11.02;9.20;;;;;;;20.48;100.00;95225.06;1034733;28;20017;-72
2021/06/20 01:48:37;;;;;;;10.70;9.15;;;;;;;20.59;100.00;95240.59;1031061;28;20022;-72
2021/06/20 01:49:07;;;;;;;11.20;10.10;;;;;;;20.60;100.00;95242.16;1027318;28;20527;-72
2021/06/20 01:49:38;;;;;;;10.23;9.23;;;;;;;20.61;100.00;95238.38;1027680;28;20034;-72
2021/06/20 01:50:10;;;;;;;11.13;9.52;;;;;;;20.60;100.00;95247.50;1023090;29;20078;-72
2021/06/20 01:50:41;;;;;;;13.02;9.52;;;;;;;20.59;100.00;95240.59;1023159;29;20115;-73
2021/06/20 01:51:12;;;;;;;10.57;9.45;;;;;;;20.54;100.00;95238.97;1026158;28;20030;-72
2021/06/20 01:51:42;;;;;;;13.38;9.60;;;;;;;20.54;100.00;95248.84;1031966;28;20030;-72
2021/06/20 01:52:20;;;;;;;20.77;10.27;;;;;;;20.52;100.00;95251.84;1035117;28;20021;-73
2021/06/20 01:53:01;;;;;;;22.30;10.05;;;;;;;20.51;100.00;95246.84;1030761;28;20026;-72
2021/06/20 01:53:31;;;;;;;21.20;9.68;;;;;;;20.49;100.00;95244.50;1029605;28;20019;-72
2021/06/20 01:54:05;;;;;;;21.50;11.13;;;;;;;20.45;100.00;95246.28;1029841;28;20141;-72
2021/06/20 01:54:36;;;;;;;13.20;9.48;;;;;;;20.34;100.00;95235.31;1034138;28;20493;-71
2021/06/20 01:55:10;;;;;;;11.02;9.43;;;;;;;20.33;100.00;95230.34;1027619;28;20019;-72
2021/06/20 01:55:42;;;;;;;11.05;9.95;;;;;;;20.35;100.00;95236.88;1028128;28;20031;-72
2021/06/20 01:56:13;;;;;;;13.20;10.07;;;;;;;20.33;100.00;95238.34;1028895;28;20027;-72
2021/06/20 01:56:43;;;;;;;10.10;9.10;;;;;;;20.31;100.00;95236.00;1027767;28;20197;-72
2021/06/20 01:57:14;;;;;;;13.85;9.27;;;;;;;20.23;100.00;95223.59;1032230;28;20049;-72
2021/06/20 01:57:44;;;;;;;11.18;9.52;;;;;;;20.23;100.00;95223.59;1030469;28;20042;-71
2021/06/20 01:58:16;;;;;;;10.93;9.93;;;;;;;20.19;100.00;95222.72;1039327;28;20402;-72
2021/06/20 01:58:47;;;;;;;12.15;9.93;;;;;;;20.26;100.00;95238.91;1034830;28;20570;-70
2021/06/20 01:59:19;;;;;;;10.57;9.40;;;;;;;20.20;100.00;95229.59;1035476;28;20030;-71
2021/06/20 01:59:50;;;;;;;11.23;10.13;;;;;;;20.15;100.00;95224.47;1033995;28;20101;-71
2021/06/20 02:00:21;;;;;;;12.18;10.13;;;;;;;20.18;100.00;95229.13;1030768;28;20041;-71
2021/06/20 02:00:52;;;;;;;11.43;10.27;;;;;;;20.11;100.00;95223.59;1030817;28;20094;-71
2021/06/20 02:01:25;;;;;;;12.43;9.75;;;;;;;20.16;100.00;95231.38;1022806;29;20032;-72
2021/06/20 02:01:56;;;;;;;15.30;9.90;;;;;;;20.14;100.00;95234.34;1023729;28;20032;-72
2021/06/20 02:02:28;;;;;;;10.88;9.73;;;;;;;20.09;100.00;95228.50;1028177;28;20030;-71
2021/06/20 02:03:11;;;;;;;11.77;9.88;;;;;;;20.11;100.00;95236.91;1030972;28;20046;-71
2021/06/20 02:03:42;;;;;;;12.02;10.10;;;;;;;20.09;100.00;95228.50;1035156;28;20034;-72
2021/06/20 02:04:12;;;;;;;10.18;9.25;;;;;;;20.06;100.00;95235.28;1030888;28;20034;-72
2021/06/20 02:04:43;;;;;;;11.27;10.18;;;;;;;20.03;100.00;95227.94;1030939;28;20030;-72
2021/06/20 02:05:14;;;;;;;10.82;9.60;;;;;;;19.89;100.00;95203.56;1026797;28;20921;-71
2021/06/20 02:05:46;;;;;;;11.38;9.55;;;;;;;20.05;100.00;95227.59;1030999;28;20034;-71
2021/06/20 02:06:16;;;;;;;14.10;9.63;;;;;;;20.02;100.00;95234.41;1030943;28;20027;-71
2021/06/20 02:06:49;;;;;;;18.85;9.95;;;;;;;19.97;100.00;95216.75;1031287;28;20026;-71
2021/06/20 02:07:20;;;;;;;12.73;9.50;;;;;;;20.00;100.00;95231.28;1031700;28;20038;-69
2021/06/20 02:07:50;;;;;;;12.57;9.30;;;;;;;19.98;100.00;95228.94;1035943;28;20021;-72
2021/06/20 02:08:21;;;;;;;12.88;9.77;;;;;;;19.97;100.00;95219.41;1034640;28;20030;-72
2021/06/20 02:08:51;;;;;;;12.20;9.77;;;;;;;19.97;100.00;95226.63;1035177;28;20033;-72
2021/06/20 02:09:21;;;;;;;14.38;9.45;;;;;;;19.96;100.00;95214.44;1030904;28;20054;-71
2021/06/20 02:09:52;;;;;;;10.65;9.65;;;;;;;19.88;100.00;95208.09;1026895;28;20022;-71
2021/06/20 02:10:23;;;;;;;12.68;9.63;;;;;;;19.90;100.00;95215.75;1031249;28;20026;-71
2021/06/20 02:10:54;;;;;;;15.13;9.95;;;;;;;19.90;100.00;95216.53;1027234;28;20019;-71
2021/06/20 02:11:25;;;;;;;11.20;9.82;;;;;;;19.91;100.00;95217.31;1024398;28;20034;-71
2021/06/20 02:11:55;;;;;;;10.52;9.52;;;;;;;19.87;100.00;95217.19;1023099;29;20066;-71
2021/06/20 02:12:26;;;;;;;11.52;10.02;;;;;;;19.85;100.00;95213.31;1019270;29;20031;-72
2021/06/20 02:12:56;;;;;;;12.70;9.40;;;;;;;19.84;100.00;95217.88;1026204;28;20385;-70
2021/06/20 02:13:28;;;;;;;10.60;9.60;;;;;;;19.83;100.00;95218.97;1026719;28;20045;-71
2021/06/20 02:13:59;;;;;;;10.85;9.75;;;;;;;19.82;100.00;95212.13;1026883;28;20105;-73
2021/06/20 02:14:29;;;;;;;13.25;10.27;;;;;;;19.76;100.00;95216.09;1027202;28;20084;-70
2021/06/20 02:15:00;;;;;;;10.73;9.63;;;;;;;19.79;100.00;95215.44;1032621;28;20037;-71
2021/06/20 02:15:30;;;;;;;10.82;9.65;;;;;;;19.76;100.00;95203.56;1039008;28;20033;-71
2021/06/20 02:16:02;;;;;;;11.50;9.63;;;;;;;19.82;100.00;95211.31;1035217;28;20048;-71
2021/06/20 02:16:32;;;;;;;11.98;9.85;;;;;;;19.81;100.00;95212.44;1028323;28;20636;-71
2021/06/20 02:17:09;;;;;;;10.63;9.60;;;;;;;19.81;100.00;95207.88;1031663;28;20026;-71
2021/06/20 02:17:40;;;;;;;13.23;9.57;;;;;;;19.81;100.00;95210.53;1030791;28;20045;-71
2021/06/20 02:18:11;;;;;;;12.15;9.82;;;;;;;19.80;100.00;95218.88;1029647;28;20038;-73
2021/06/20 02:18:42;;;;;;;10.30;9.30;;;;;;;19.80;100.00;95216.97;1027129;28;20381;-72
2021/06/20 02:19:12;;;;;;;14.13;9.50;;;;;;;19.73;100.00;95206.88;1023581;28;20024;-71
2021/06/20 02:19:43;;;;;;;12.23;9.43;;;;;;;19.80;100.00;95216.97;1023092;28;20464;-71
2021/06/20 02:20:15;;;;;;;10.98;9.70;;;;;;;19.78;100.00;95219.19;1030974;28;20030;-71
2021/06/20 02:20:46;;;;;;;11.13;9.73;;;;;;;19.79;100.00;95215.44;1031413;28;20030;-71
2021/06/20 02:21:17;;;;;;;10.60;9.60;;;;;;;19.72;100.00;95210.66;1028052;28;20098;-71
2021/06/20 02:21:47;;;;;;;10.57;9.52;;;;;;;19.79;100.00;95215.44;1033461;28;20495;-71
2021/06/20 02:22:17;;;;;;;11.82;9.65;;;;;;;19.72;100.00;95210.66;1031401;28;20030;-72
2021/06/20 02:22:52;;;;;;;14.80;9.35;;;;;;;19.76;100.00;95227.53;1027608;28;20556;-71
2021/06/20 02:23:22;;;;;;;10.68;9.02;;;;;;;19.76;100.00;95224.09;1027476;28;20042;-72
2021/06/20 02:23:53;;;;;;;10.85;9.00;;;;;;;19.75;100.00;95233.16;1031617;28;20034;-71
2021/06/20 02:24:28;;;;;;;10.93;9.82;;;;;;;19.74;100.00;95231.63;1035926;28;20029;-72
2021/06/20 02:24:58;;;;;;;10.52;9.43;;;;;;;19.71;100.00;95227.72;1032200;28;20057;-71
2021/06/20 02:25:29;;;;;;;10.38;9.38;;;;;;;19.72;100.00;95231.19;1027035;28;20141;-72
2021/06/20 02:25:59;;;;;;;13.60;10.30;;;;;;;19.72;100.00;95236.53;1027106;28;20064;-72